Time;durP1;ratioP1;P1;durP2;ratioP2;P2;SDS_P1;SDS_P2;PMS_P1;PMS_P2;Temp;Humidity;BMP_temperature;BMP_pressure;BME280_temperature;BME280_humidity;BME280_pressure;Samples;Min_cycle;Max_cycle;Signal;HPM_P1;HPM_P2
2022/12/08 00:00:48;;;;;;;20.85;11.43;;;5.90;93.40;;;;;;5048268;28;20017;-74
2022/12/08 00:03:14;;;;;;;19.13;11.48;;;6.00;93.40;;;;;;5046339;28;20104;-74
2022/12/08 00:11:16;;;;;;;14.98;11.30;;;6.00;93.20;;;;;;5047472;28;20087;-74
2022/12/08 00:13:42;;;;;;;17.02;12.52;;;6.00;93.20;;;;;;5048959;28;20053;-74
2022/12/08 00:16:09;;;;;;;16.75;12.00;;;6.00;93.30;;;;;;5048673;28;20024;-75
2022/12/08 00:18:35;;;;;;;19.50;12.63;;;6.00;93.40;;;;;;5046570;28;20203;-74
2022/12/08 00:21:00;;;;;;;18.10;11.38;;;6.00;93.40;;;;;;5049870;28;20025;-73
2022/12/08 00:23:26;;;;;;;18.05;12.00;;;6.00;93.40;;;;;;5046288;28;20036;-75
2022/12/08 00:25:52;;;;;;;20.80;12.32;;;6.10;93.40;;;;;;5047972;28;20336;-74
2022/12/08 00:28:17;;;;;;;17.95;12.18;;;6.10;93.30;;;;;;5044053;28;20052;-74
2022/12/08 00:30:43;;;;;;;20.27;11.82;;;6.10;93.30;;;;;;5042467;28;20053;-74
2022/12/08 00:33:09;;;;;;;20.48;11.63;;;6.10;93.20;;;;;;5041893;28;20033;-74
2022/12/08 00:35:35;;;;;;;15.45;9.57;;;6.10;93.30;;;;;;5031197;28;20025;-74
2022/12/08 00:38:01;;;;;;;18.38;11.38;;;6.10;93.20;;;;;;5040994;28;20546;-74
2022/12/08 00:40:27;;;;;;;15.73;12.10;;;6.10;93.20;;;;;;5045064;28;20017;-75
2022/12/08 00:42:52;;;;;;;13.82;9.82;;;6.00;93.30;;;;;;5032286;28;20029;-74
2022/12/08 00:45:18;;;;;;;13.65;9.90;;;6.00;93.30;;;;;;5041755;28;20089;-75
2022/12/08 00:47:43;;;;;;;13.95;9.65;;;6.00;93.40;;;;;;5034175;28;20025;-73
2022/12/08 00:50:10;;;;;;;16.10;9.68;;;6.00;93.50;;;;;;5039352;28;20020;-74
2022/12/08 00:52:37;;;;;;;12.30;9.00;;;6.00;93.50;;;;;;5016079;28;20418;-74
2022/12/08 00:55:03;;;;;;;14.77;8.82;;;5.90;93.60;;;;;;5041737;28;20044;-74
2022/12/08 00:57:29;;;;;;;16.83;9.05;;;5.90;93.70;;;;;;5047466;28;20060;-74
2022/12/08 00:59:54;;;;;;;15.60;10.00;;;5.90;93.70;;;;;;5048383;28;20057;-74
2022/12/08 01:02:20;;;;;;;13.10;9.00;;;5.90;93.70;;;;;;5043142;28;20064;-73
2022/12/08 01:04:46;;;;;;;16.02;10.05;;;5.90;93.80;;;;;;5027247;28;20018;-75
2022/12/08 01:07:12;;;;;;;11.63;8.90;;;6.00;93.80;;;;;;5048826;28;20059;-75
2022/12/08 01:09:37;;;;;;;12.25;9.05;;;6.00;93.80;;;;;;5029255;28;20403;-74
2022/12/08 01:12:04;;;;;;;13.10;8.00;;;6.00;93.80;;;;;;4989564;28;1122503;-73
2022/12/08 01:14:30;;;;;;;13.30;9.23;;;6.00;93.80;;;;;;5016346;28;20025;-74
2022/12/08 01:16:55;;;;;;;15.27;8.40;;;6.00;93.90;;;;;;5037023;28;20028;-74
2022/12/08 01:19:22;;;;;;;11.23;8.23;;;6.00;93.90;;;;;;5045835;28;20391;-77
2022/12/08 01:21:48;;;;;;;13.20;8.13;;;6.00;93.90;;;;;;5030638;28;20036;-74
2022/12/08 01:24:19;;;;;;;14.60;8.90;;;6.00;93.90;;;;;;5041706;28;20121;-74
2022/12/08 01:26:46;;;;;;;13.25;8.10;;;6.10;93.90;;;;;;5043212;28;20024;-74
2022/12/08 01:29:12;;;;;;;12.05;9.40;;;6.10;93.90;;;;;;5047058;28;20017;-74
2022/12/08 01:31:38;;;;;;;12.15;8.98;;;6.10;93.90;;;;;;5033691;28;20534;-75
2022/12/08 01:34:05;;;;;;;14.55;9.77;;;6.10;94.00;;;;;;5038499;28;20029;-74
2022/12/08 01:36:32;;;;;;;18.25;11.27;;;6.10;93.90;;;;;;5036506;28;20014;-74
2022/12/08 01:39:00;;;;;;;14.02;10.32;;;6.00;94.00;;;;;;5046847;28;20303;-74
2022/12/08 01:41:29;;;;;;;12.93;8.98;;;6.00;94.10;;;;;;5047698;28;20044;-75
2022/12/08 01:44:21;;;;;;;18.88;12.48;;;6.10;94.20;;;;;;5029594;28;20025;-76
2022/12/08 01:46:47;;;;;;;16.70;11.77;;;6.10;94.10;;;;;;5036736;28;20445;-75
2022/12/08 01:49:16;;;;;;;19.45;14.02;;;6.10;94.10;;;;;;5048360;28;20025;-74
2022/12/08 01:51:54;;;;;;;23.85;14.85;;;6.10;94.20;;;;;;5041005;28;20033;-74
2022/12/08 01:54:23;;;;;;;19.08;13.32;;;6.20;94.30;;;;;;5039097;28;20033;-74
2022/12/08 01:56:57;;;;;;;19.05;15.00;;;6.10;94.20;;;;;;5023839;28;20079;-74
2022/12/08 01:59:24;;;;;;;20.30;15.35;;;6.10;94.20;;;;;;5048199;28;20032;-74
2022/12/08 02:01:50;;;;;;;19.30;14.10;;;6.00;94.30;;;;;;5039129;28;20632;-74
2022/12/08 02:04:16;;;;;;;21.52;15.27;;;6.10;94.40;;;;;;5040197;28;20037;-75
2022/12/08 02:06:45;;;;;;;20.55;15.77;;;6.10;94.40;;;;;;5043329;28;20033;-73
2022/12/08 02:09:11;;;;;;;26.17;16.50;;;6.10;94.40;;;;;;5048584;28;20487;-75
2022/12/08 02:11:37;;;;;;;21.00;15.15;;;6.10;94.40;;;;;;5036326;28;20022;-74
2022/12/08 02:14:05;;;;;;;21.40;15.02;;;6.10;94.40;;;;;;5047327;28;20106;-74
2022/12/08 02:17:00;;;;;;;23.10;15.85;;;6.10;94.40;;;;;;5043573;28;20025;-74
2022/12/08 02:19:59;;;;;;;22.95;16.80;;;6.10;94.40;;;;;;5047504;28;20047;-74
2022/12/08 02:22:52;;;;;;;23.97;15.53;;;6.10;94.30;;;;;;5043398;28;20100;-74
2022/12/08 02:25:33;;;;;;;22.27;15.93;;;6.10;94.30;;;;;;5035139;28;20542;-75
2022/12/08 02:28:20;;;;;;;20.67;15.00;;;6.00;94.40;;;;;;5046074;28;20029;-74
2022/12/08 02:31:19;;;;;;;22.70;16.23;;;6.00;94.50;;;;;;5032457;28;20033;-74
2022/12/08 02:33:56;;;;;;;22.63;15.75;;;6.00;94.50;;;;;;5019313;28;20128;-75
2022/12/08 02:36:45;;;;;;;19.15;15.13;;;5.90;94.60;;;;;;5043871;28;20029;-74
2022/12/08 02:39:19;;;;;;;22.33;16.35;;;5.90;94.70;;;;;;5041958;28;20021;-75
2022/12/08 02:41:55;;;;;;;18.65;13.27;;;5.90;94.80;;;;;;5040987;28;20017;-74
2022/12/08 02:44:34;;;;;;;19.17;13.80;;;5.90;94.80;;;;;;5033625;28;20379;-73
2022/12/08 02:47:07;;;;;;;21.10;15.98;;;5.90;95.00;;;;;;5043113;28;20028;-74
2022/12/08 02:49:34;;;;;;;22.77;15.85;;;5.90;95.00;;;;;;5034292;28;20074;-74
2022/12/08 02:52:12;;;;;;;21.30;15.15;;;5.90;95.00;;;;;;5046363;28;20086;-74
2022/12/08 02:54:43;;;;;;;21.88;16.90;;;5.90;95.00;;;;;;5034584;28;20025;-75
2022/12/08 02:57:15;;;;;;;24.75;17.00;;;5.90;95.00;;;;;;5043707;28;20028;-73
2022/12/08 03:00:07;;;;;;;22.13;16.73;;;5.90;95.10;;;;;;5035981;28;20502;-74
2022/12/08 03:02:58;;;;;;;21.30;15.93;;;5.90;95.10;;;;;;5022652;28;20025;-74
2022/12/08 03:05:30;;;;;;;25.00;15.65;;;5.80;95.10;;;;;;5035235;28;20107;-74
2022/12/08 03:08:12;;;;;;;23.02;16.27;;;5.80;95.10;;;;;;5039551;28;20086;-74
2022/12/08 03:10:54;;;;;;;26.95;18.95;;;5.80;95.20;;;;;;5035100;28;20029;-73
2022/12/08 03:13:27;;;;;;;23.70;17.52;;;5.90;95.20;;;;;;5032975;28;20057;-74
2022/12/08 03:15:54;;;;;;;23.85;17.15;;;5.90;95.20;;;;;;5045636;28;20031;-75
2022/12/08 03:18:25;;;;;;;19.15;13.88;;;5.90;95.20;;;;;;5042652;28;20062;-75
2022/12/08 03:20:51;;;;;;;26.13;17.25;;;5.90;95.30;;;;;;5041005;28;20017;-74
2022/12/08 03:23:19;;;;;;;20.63;14.65;;;6.00;95.20;;;;;;5030179;28;20029;-74
2022/12/08 03:26:11;;;;;;;21.67;16.33;;;6.00;95.10;;;;;;5045867;28;20021;-73
2022/12/08 03:28:38;;;;;;;22.35;15.50;;;6.00;95.00;;;;;;5041377;28;20026;-74
2022/12/08 03:31:06;;;;;;;24.17;15.98;;;6.00;95.10;;;;;;5042592;28;20032;-74
2022/12/08 03:33:39;;;;;;;22.17;14.90;;;6.00;95.20;;;;;;5044266;28;20057;-74
2022/12/08 03:36:07;;;;;;;21.65;15.38;;;5.90;95.30;;;;;;5047755;28;20111;-74
2022/12/08 03:38:41;;;;;;;22.40;15.65;;;6.00;95.30;;;;;;5044894;28;20025;-74
2022/12/08 03:41:19;;;;;;;18.27;13.20;;;5.90;95.30;;;;;;5039720;28;20021;-74
2022/12/08 03:43:52;;;;;;;16.58;12.30;;;5.90;95.40;;;;;;5044501;28;20415;-74
2022/12/08 03:46:23;;;;;;;15.65;11.43;;;5.80;95.40;;;;;;5047559;28;20032;-75
2022/12/08 03:48:48;;;;;;;;;;;5.80;95.50;;;;;;5033142;28;20036;-75
2022/12/08 03:51:15;;;;;;;14.55;9.43;;;5.90;95.40;;;;;;5033775;28;20003;-74
2022/12/08 03:53:41;;;;;;;12.63;8.77;;;5.90;95.30;;;;;;5030202;28;20042;-74
2022/12/08 03:56:37;;;;;;;14.30;10.25;;;5.80;95.30;;;;;;5038376;28;20025;-73
2022/12/08 03:59:04;;;;;;;15.68;8.30;;;5.80;95.40;;;;;;5035168;28;20451;-74
2022/12/08 04:01:30;;;;;;;14.45;8.57;;;5.80;95.40;;;;;;5017776;28;20053;-74
2022/12/08 04:03:56;;;;;;;14.85;7.53;;;5.80;95.40;;;;;;5036496;28;20018;-74
2022/12/08 04:06:22;;;;;;;10.18;6.60;;;5.80;95.30;;;;;;5032571;28;20092;-74
2022/12/08 04:08:49;;;;;;;10.50;6.55;;;5.90;95.30;;;;;;5046368;28;20028;-74
2022/12/08 04:11:15;;;;;;;10.02;6.03;;;5.80;95.20;;;;;;5041914;28;20632;-75
2022/12/08 04:13:41;;;;;;;11.23;5.75;;;5.80;95.10;;;;;;5037224;28;20049;-74
2022/12/08 04:16:08;;;;;;;9.55;6.13;;;5.80;95.10;;;;;;5047204;28;20033;-75
2022/12/08 04:18:34;;;;;;;11.75;5.85;;;5.80;95.00;;;;;;5050610;28;20021;-75
2022/12/08 04:21:00;;;;;;;8.07;5.65;;;5.80;95.00;;;;;;5046498;28;20047;-74
2022/12/08 04:23:26;;;;;;;9.05;5.22;;;5.90;94.90;;;;;;5051025;28;20471;-75
2022/12/08 04:25:52;;;;;;;7.72;5.35;;;5.80;95.00;;;;;;5046385;28;20033;-75
2022/12/08 04:28:18;;;;;;;10.18;5.97;;;5.90;95.00;;;;;;5042371;28;20021;-74
2022/12/08 04:30:43;;;;;;;7.25;4.28;;;5.90;94.90;;;;;;5044578;28;20028;-74
2022/12/08 04:33:09;;;;;;;6.25;4.05;;;5.90;94.90;;;;;;5016760;28;20061;-74
2022/12/08 04:35:35;;;;;;;6.07;3.60;;;6.00;94.80;;;;;;5045868;28;20024;-74
2022/12/08 04:38:01;;;;;;;4.65;2.75;;;5.90;94.70;;;;;;5031710;28;20016;-74
2022/12/08 04:40:27;;;;;;;5.10;2.63;;;5.80;94.50;;;;;;5047395;28;20082;-73
2022/12/08 04:42:52;;;;;;;5.97;3.20;;;5.90;94.60;;;;;;5048994;28;20017;-75
2022/12/08 04:45:18;;;;;;;6.93;3.17;;;5.80;94.50;;;;;;5046274;28;20032;-74
2022/12/08 04:47:44;;;;;;;6.82;2.88;;;5.80;94.50;;;;;;5045524;28;20053;-74
2022/12/08 04:50:10;;;;;;;7.60;3.63;;;5.90;94.40;;;;;;5035379;28;20029;-74
2022/12/08 04:52:36;;;;;;;6.18;3.85;;;5.90;94.40;;;;;;5040984;28;20025;-75
2022/12/08 04:55:02;;;;;;;8.80;4.25;;;6.00;94.40;;;;;;5047465;28;20682;-73
2022/12/08 04:57:28;;;;;;;7.10;4.43;;;6.00;94.30;;;;;;5020688;28;20434;-74
2022/12/08 04:59:53;;;;;;;11.68;6.22;;;6.00;94.30;;;;;;5037239;28;20040;-73
2022/12/08 05:02:19;;;;;;;8.55;6.35;;;6.00;94.40;;;;;;5047583;28;20067;-74
2022/12/08 05:04:44;;;;;;;8.60;5.78;;;6.00;94.50;;;;;;5045665;28;20047;-75
2022/12/08 05:07:10;;;;;;;9.43;6.40;;;6.10;94.40;;;;;;5047729;28;20025;-76
2022/12/08 05:09:36;;;;;;;9.27;5.85;;;6.10;94.50;;;;;;5049560;28;20135;-74
2022/12/08 05:12:02;;;;;;;9.07;7.15;;;6.10;94.50;;;;;;5021135;28;20050;-74
2022/12/08 05:14:27;;;;;;;10.80;6.55;;;6.10;94.50;;;;;;5026488;28;20021;-75
2022/12/08 05:16:54;;;;;;;9.63;7.85;;;6.00;94.40;;;;;;5025151;28;20076;-75
2022/12/08 05:19:20;;;;;;;12.05;9.02;;;6.10;94.40;;;;;;5024940;28;20025;-74
2022/12/08 05:21:46;;;;;;;10.32;8.73;;;6.00;94.40;;;;;;5024547;28;20172;-74
2022/12/08 05:24:11;;;;;;;12.95;8.57;;;6.10;94.40;;;;;;5021581;28;20519;-75
2022/12/08 05:26:37;;;;;;;10.30;7.45;;;6.00;94.50;;;;;;5026972;28;20511;-73
2022/12/08 05:29:03;;;;;;;14.18;10.27;;;5.90;94.60;;;;;;5030970;28;20182;-73
2022/12/08 05:31:28;;;;;;;11.68;9.43;;;6.00;94.70;;;;;;5029283;28;20764;-74
2022/12/08 05:33:54;;;;;;;12.77;9.80;;;6.00;94.70;;;;;;5025119;28;20185;-74
2022/12/08 05:36:20;;;;;;;10.35;8.18;;;6.00;94.70;;;;;;5029923;28;20029;-74
2022/12/08 05:38:46;;;;;;;11.50;8.40;;;5.90;94.60;;;;;;5033150;28;20115;-75
2022/12/08 05:41:17;;;;;;;10.10;7.45;;;5.90;94.70;;;;;;5031374;28;20491;-74
2022/12/08 05:43:44;;;;;;;13.07;7.88;;;5.90;94.80;;;;;;5028794;28;20387;-74
2022/12/08 05:46:10;;;;;;;12.52;8.23;;;5.90;94.80;;;;;;5032034;28;20546;-74
2022/12/08 05:48:37;;;;;;;9.38;6.47;;;6.00;94.70;;;;;;5026195;28;20013;-75
2022/12/08 05:51:04;;;;;;;7.15;5.15;;;5.90;94.70;;;;;;5023782;28;20052;-75
2022/12/08 05:53:30;;;;;;;10.07;5.03;;;6.00;94.60;;;;;;5025214;28;20112;-75
2022/12/08 05:55:55;;;;;;;7.90;4.75;;;6.00;94.50;;;;;;5029067;28;20108;-74
2022/12/08 05:58:22;;;;;;;6.10;4.03;;;6.00;94.40;;;;;;5025488;28;20052;-75
2022/12/08 06:00:48;;;;;;;7.50;4.65;;;6.00;94.30;;;;;;5029267;28;20033;-74
2022/12/08 06:03:16;;;;;;;6.25;3.22;;;6.00;94.20;;;;;;5027355;28;20136;-77
2022/12/08 06:05:44;;;;;;;4.78;2.28;;;6.00;94.00;;;;;;5028027;28;20537;-73
2022/12/08 06:08:10;;;;;;;5.03;1.77;;;5.90;93.90;;;;;;5013687;28;20021;-74
2022/12/08 06:10:41;;;;;;;3.63;1.52;;;5.80;93.80;;;;;;5011780;28;20863;-75
2022/12/08 06:13:07;;;;;;;5.78;2.13;;;5.80;93.80;;;;;;5041323;28;20151;-75
2022/12/08 06:15:34;;;;;;;2.95;1.33;;;5.80;93.90;;;;;;5041213;28;20009;-75
2022/12/08 06:18:00;;;;;;;5.95;2.03;;;5.80;93.90;;;;;;5048188;28;20032;-75
2022/12/08 06:20:26;;;;;;;2.28;1.33;;;5.80;93.90;;;;;;5038507;28;20029;-75
2022/12/08 06:22:53;;;;;;;5.05;1.52;;;5.80;93.90;;;;;;5047671;28;20033;-74
2022/12/08 06:25:19;;;;;;;3.42;1.50;;;5.80;93.90;;;;;;5033942;28;20025;-75
2022/12/08 06:27:44;;;;;;;5.65;1.50;;;5.80;93.80;;;;;;5046909;28;20048;-75
2022/12/08 06:30:10;;;;;;;5.13;1.75;;;5.70;93.80;;;;;;5044528;28;20108;-75
2022/12/08 06:32:36;;;;;;;5.45;2.00;;;5.60;93.80;;;;;;5034975;28;20040;-75
2022/12/08 06:35:02;;;;;;;3.20;1.30;;;5.60;93.90;;;;;;5039734;28;20029;-75
2022/12/08 06:37:28;;;;;;;4.28;1.42;;;5.60;94.00;;;;;;5047790;28;20108;-74
2022/12/08 06:39:53;;;;;;;4.80;1.83;;;5.60;94.10;;;;;;5033398;28;20036;-75
2022/12/08 06:45:04;;;;;;;3.97;1.40;;;5.60;94.10;;;;;;5043056;28;20032;-74
2022/12/08 06:47:29;;;;;;;2.75;1.33;;;5.50;93.90;;;;;;5042621;28;20190;-75
2022/12/08 06:49:55;;;;;;;2.97;1.10;;;5.50;94.00;;;;;;5040719;28;20076;-75
2022/12/08 06:52:21;;;;;;;3.17;1.20;;;5.50;94.00;;;;;;5030689;28;20021;-75
2022/12/08 06:54:47;;;;;;;3.22;1.55;;;5.60;94.10;;;;;;5040221;28;20032;-74
2022/12/08 06:57:12;;;;;;;3.08;1.40;;;5.60;94.00;;;;;;5049392;28;20024;-75
2022/12/08 06:59:38;;;;;;;4.70;2.22;;;5.60;93.90;;;;;;5048338;28;20029;-75
2022/12/08 07:02:04;;;;;;;4.13;1.40;;;5.70;93.90;;;;;;5032359;28;20025;-75
2022/12/08 07:04:30;;;;;;;3.60;1.60;;;5.60;93.80;;;;;;5025812;28;20031;-76
2022/12/08 07:06:55;;;;;;;2.97;1.88;;;5.70;93.80;;;;;;5036252;28;20105;-76
2022/12/08 07:09:21;;;;;;;4.75;1.77;;;5.70;93.80;;;;;;5043909;28;20040;-75
2022/12/08 07:11:47;;;;;;;4.72;2.17;;;5.70;93.80;;;;;;5020562;28;20138;-75
2022/12/08 07:14:13;;;;;;;4.88;2.05;;;5.80;93.80;;;;;;5024368;28;20384;-76
2022/12/08 07:16:39;;;;;;;4.38;2.55;;;5.70;93.70;;;;;;5018902;28;20030;-76
2022/12/08 07:19:05;;;;;;;5.18;2.55;;;5.80;93.70;;;;;;5018358;28;20034;-75
2022/12/08 07:21:31;;;;;;;5.70;2.63;;;5.80;93.70;;;;;;5024572;28;20025;-76
2022/12/08 07:23:56;;;;;;;4.78;2.83;;;5.80;93.70;;;;;;5023839;28;20037;-75
2022/12/08 07:26:22;;;;;;;3.67;1.40;;;5.80;93.60;;;;;;5020405;28;20058;-75
2022/12/08 07:28:50;;;;;;;2.47;1.00;;;5.90;93.80;;;;;;5018869;28;20038;-75
2022/12/08 07:31:21;;;;;;;1.23;0.70;;;6.00;95.00;;;;;;5013897;28;20099;-75
2022/12/08 07:33:49;;;;;;;4.85;2.20;;;6.10;95.60;;;;;;5017132;28;20046;-76
2022/12/08 07:36:15;;;;;;;6.13;3.05;;;6.20;95.20;;;;;;5010932;28;20036;-76
2022/12/08 07:38:42;;;;;;;6.18;3.28;;;6.20;94.50;;;;;;5025791;28;20528;-75
2022/12/08 07:41:16;;;;;;;8.52;3.70;;;6.20;93.80;;;;;;5017769;28;20028;-76
2022/12/08 07:43:42;;;;;;;5.38;3.35;;;6.20;93.40;;;;;;5026815;28;20028;-75
2022/12/08 07:46:12;;;;;;;6.68;3.33;;;6.30;93.20;;;;;;5021959;28;20108;-75
2022/12/08 07:48:38;;;;;;;7.80;3.03;;;6.20;92.90;;;;;;5019825;28;20083;-75
2022/12/08 07:51:04;;;;;;;8.48;3.75;;;6.20;92.90;;;;;;5021665;28;20052;-76
2022/12/08 07:53:30;;;;;;;8.85;3.92;;;6.20;93.10;;;;;;5026871;28;20038;-75
2022/12/08 07:55:56;;;;;;;10.65;3.42;;;6.10;92.80;;;;;;5029085;28;20028;-75
2022/12/08 07:58:22;;;;;;;6.47;3.58;;;6.00;92.90;;;;;;5023301;28;20029;-74
2022/12/08 08:00:48;;;;;;;15.73;5.43;;;6.10;92.90;;;;;;5027164;28;20579;-78
2022/12/08 08:03:13;;;;;;;10.32;4.50;;;6.10;92.90;;;;;;5041487;28;20145;-76
2022/12/08 08:05:40;;;;;;;4.25;1.75;;;6.10;92.90;;;;;;5029467;28;20038;-75
2022/12/08 08:08:06;;;;;;;8.73;3.38;;;6.20;94.40;;;;;;5030337;28;20025;-76
2022/12/08 08:10:32;;;;;;;11.05;5.05;;;6.20;94.30;;;;;;5029596;28;20028;-77
2022/12/08 08:12:58;;;;;;;7.28;3.83;;;6.20;93.90;;;;;;5040048;28;20039;-76
2022/12/08 08:15:24;;;;;;;6.38;3.58;;;6.10;93.60;;;;;;5052075;28;20025;-77
2022/12/08 08:17:52;;;;;;;8.52;3.72;;;6.10;93.40;;;;;;5047647;28;20025;-76
2022/12/08 08:20:18;;;;;;;6.75;3.70;;;6.20;93.30;;;;;;5049668;28;20025;-76
2022/12/08 08:22:48;;;;;;;12.85;6.68;;;6.20;93.10;;;;;;5051207;28;20035;-76
2022/12/08 08:25:15;;;;;;;7.10;3.75;;;6.20;92.90;;;;;;5050468;28;20079;-75
2022/12/08 08:27:41;;;;;;;6.20;3.20;;;6.20;92.80;;;;;;5048782;28;20075;-75
2022/12/08 08:30:08;;;;;;;9.20;4.25;;;6.20;92.90;;;;;;5037704;28;20047;-76
2022/12/08 08:32:34;;;;;;;10.32;5.55;;;6.20;92.70;;;;;;5049261;28;20044;-76
2022/12/08 08:35:01;;;;;;;14.75;7.55;;;6.20;92.60;;;;;;5046740;28;20025;-75
2022/12/08 08:37:27;;;;;;;10.75;5.38;;;6.20;92.70;;;;;;5046495;28;20029;-77
2022/12/08 08:39:52;;;;;;;7.72;3.78;;;6.20;92.70;;;;;;5021624;28;20112;-76
2022/12/08 08:42:18;;;;;;;5.43;3.20;;;6.20;92.70;;;;;;5038403;28;20026;-76
2022/12/08 08:44:44;;;;;;;7.40;4.50;;;6.20;92.70;;;;;;5026352;28;20024;-77
2022/12/08 08:47:09;;;;;;;9.65;3.90;;;6.20;92.70;;;;;;5050857;28;20037;-77
2022/12/08 08:49:35;;;;;;;6.13;3.20;;;6.20;92.70;;;;;;5041818;28;20097;-76
2022/12/08 08:52:03;;;;;;;7.45;3.40;;;6.10;92.60;;;;;;5040474;28;20021;-76
2022/12/08 08:54:30;;;;;;;6.68;3.13;;;6.10;92.70;;;;;;5036886;28;20060;-77
2022/12/08 08:56:57;;;;;;;7.85;3.35;;;6.10;92.70;;;;;;5045934;28;20025;-77
2022/12/08 08:59:23;;;;;;;7.65;3.35;;;6.10;92.70;;;;;;5046283;28;20060;-76
2022/12/08 09:01:49;;;;;;;9.73;3.70;;;6.00;92.70;;;;;;5032069;28;20554;-76
2022/12/08 09:04:15;;;;;;;8.10;3.63;;;6.00;92.70;;;;;;5047210;28;20588;-77
2022/12/08 09:06:44;;;;;;;10.32;4.78;;;5.90;92.80;;;;;;5049798;28;20021;-76
2022/12/08 09:09:11;;;;;;;4.57;2.60;;;5.90;92.70;;;;;;5046608;28;20455;-75
2022/12/08 09:11:37;;;;;;;5.95;2.70;;;5.90;92.80;;;;;;5015051;28;20033;-77
2022/12/08 09:14:03;;;;;;;4.85;2.67;;;5.80;93.00;;;;;;5049238;28;20120;-78
2022/12/08 09:16:28;;;;;;;5.10;2.15;;;5.80;92.80;;;;;;5023050;28;20025;-76
2022/12/08 09:18:54;;;;;;;5.78;2.95;;;5.80;92.90;;;;;;5049703;28;20075;-76
2022/12/08 09:21:22;;;;;;;6.10;2.70;;;5.70;93.00;;;;;;5025286;28;20020;-76
2022/12/08 09:23:49;;;;;;;5.30;2.63;;;5.70;93.10;;;;;;5049663;28;20017;-76
2022/12/08 09:26:15;;;;;;;4.82;2.60;;;5.70;93.10;;;;;;5044595;28;20048;-76
2022/12/08 09:28:45;;;;;;;5.35;3.25;;;5.70;93.20;;;;;;5036101;28;20554;-76
2022/12/08 09:31:12;;;;;;;7.80;3.25;;;5.70;93.30;;;;;;5047595;28;20032;-78
2022/12/08 09:33:38;;;;;;;5.30;3.38;;;5.70;93.30;;;;;;5036637;28;20052;-76
2022/12/08 09:36:04;;;;;;;6.70;3.47;;;5.70;93.40;;;;;;5048429;28;20391;-75
2022/12/08 09:38:30;;;;;;;7.00;4.00;;;5.70;93.40;;;;;;5046616;28;20029;-76
2022/12/08 09:40:57;;;;;;;6.57;3.53;;;5.70;93.30;;;;;;5039924;28;20535;-77
2022/12/08 09:43:50;;;;;;;6.53;4.10;;;5.70;93.30;;;;;;5049478;28;20021;-75
2022/12/08 09:46:18;;;;;;;9.18;5.45;;;5.70;93.50;;;;;;5027864;28;20103;-77
2022/12/08 09:48:58;;;;;;;7.75;4.55;;;5.70;93.40;;;;;;5050313;28;20025;-76
2022/12/08 09:51:32;;;;;;;6.57;3.53;;;5.70;93.50;;;;;;5046320;28;20024;-78
2022/12/08 09:53:59;;;;;;;7.75;3.88;;;5.70;93.60;;;;;;5049672;28;20064;-77
2022/12/08 09:56:29;;;;;;;5.85;3.80;;;5.90;94.90;;;;;;5044824;28;20040;-76
2022/12/08 09:59:15;;;;;;;8.77;4.18;;;6.00;94.20;;;;;;5048209;28;20029;-76
2022/12/08 10:01:41;;;;;;;9.55;4.15;;;5.90;93.60;;;;;;5042924;28;20028;-77
2022/12/08 10:04:30;;;;;;;13.30;8.15;;;6.00;93.40;;;;;;5035089;28;20025;-77
2022/12/08 10:07:14;;;;;;;8.73;4.57;;;6.00;93.30;;;;;;5022434;28;20013;-77
2022/12/08 10:09:49;;;;;;;6.07;3.63;;;6.00;93.10;;;;;;5046965;28;20144;-76
2022/12/08 10:12:18;;;;;;;6.20;2.90;;;5.90;93.10;;;;;;5039407;28;20056;-75
2022/12/08 10:14:52;;;;;;;4.22;2.22;;;5.80;93.10;;;;;;5047065;28;20029;-76
2022/12/08 10:17:37;;;;;;;5.10;2.65;;;5.80;93.10;;;;;;5040816;28;20104;-77
2022/12/08 10:20:13;;;;;;;6.20;2.90;;;5.80;93.10;;;;;;5042157;28;20025;-76
2022/12/08 10:22:39;;;;;;;5.60;2.95;;;5.80;93.10;;;;;;5040154;28;20132;-74
2022/12/08 10:25:34;;;;;;;6.95;2.85;;;5.80;93.10;;;;;;5049084;28;20703;-76
2022/12/08 10:28:00;;;;;;;4.10;2.40;;;5.70;93.10;;;;;;5043249;28;20025;-76
2022/12/08 10:30:26;;;;;;;5.40;2.90;;;5.70;93.10;;;;;;5048894;28;20028;-75
2022/12/08 10:32:53;;;;;;;5.03;3.20;;;5.70;93.20;;;;;;5046152;28;20494;-76
2022/12/08 10:35:21;;;;;;;5.78;2.97;;;5.70;93.30;;;;;;5036521;28;20048;-75
2022/12/08 10:37:58;;;;;;;5.38;3.00;;;5.80;93.30;;;;;;5045901;28;20047;-75
2022/12/08 10:40:28;;;;;;;6.57;3.85;;;5.80;93.30;;;;;;5034724;28;20557;-76
2022/12/08 10:42:58;;;;;;;8.02;3.35;;;5.80;93.20;;;;;;5042910;28;20025;-76
2022/12/08 10:45:37;;;;;;;7.50;4.25;;;5.90;93.30;;;;;;5032647;28;20028;-76
2022/12/08 10:48:11;;;;;;;6.70;4.00;;;5.80;93.30;;;;;;5034416;28;20025;-75
2022/12/08 10:50:43;;;;;;;6.30;3.83;;;5.80;93.30;;;;;;5047137;28;20025;-76
2022/12/08 10:53:19;;;;;;;5.65;2.92;;;5.90;93.30;;;;;;5044432;28;20021;-75
2022/12/08 10:55:50;;;;;;;4.75;3.00;;;5.90;93.30;;;;;;5042196;28;20025;-76
2022/12/08 10:58:34;;;;;;;5.53;2.83;;;5.80;93.20;;;;;;5043849;28;20044;-76
2022/12/08 11:01:25;;;;;;;3.80;2.10;;;5.90;93.30;;;;;;5029932;28;20387;-76
2022/12/08 11:03:55;;;;;;;4.15;2.42;;;5.90;93.30;;;;;;5035691;28;20029;-76
2022/12/08 11:06:27;;;;;;;;;;;5.90;93.20;;;;;;5046242;28;20032;-76
2022/12/08 11:08:55;;;;;;;4.20;2.20;;;6.00;93.30;;;;;;5046239;28;19916;-76
2022/12/08 11:11:37;;;;;;;4.68;2.55;;;5.90;93.20;;;;;;5042691;28;20021;-76
2022/12/08 11:14:07;;;;;;;7.22;2.42;;;5.90;93.30;;;;;;5037228;28;20029;-76
2022/12/08 11:16:34;;;;;;;4.47;2.63;;;6.00;93.40;;;;;;5039704;28;20030;-75
2022/12/08 11:19:05;;;;;;;5.95;3.15;;;6.00;93.40;;;;;;5040626;28;20167;-76
2022/12/08 11:21:36;;;;;;;6.00;3.88;;;6.10;93.30;;;;;;5043700;28;20061;-75
2022/12/08 11:24:22;;;;;;;4.80;3.08;;;6.10;93.10;;;;;;5043752;28;20590;-75
2022/12/08 11:27:01;;;;;;;6.78;2.88;;;6.10;93.00;;;;;;5038315;28;20022;-74
2022/12/08 11:29:32;;;;;;;6.57;3.75;;;6.10;93.20;;;;;;5039035;28;20052;-76
2022/12/08 11:32:13;;;;;;;8.15;3.80;;;6.10;93.10;;;;;;5051085;28;20429;-75
2022/12/08 11:34:46;;;;;;;7.28;4.00;;;6.10;93.10;;;;;;5039561;28;20124;-76
2022/12/08 11:37:25;;;;;;;7.38;4.20;;;6.20;93.20;;;;;;5042560;28;20510;-77
2022/12/08 11:39:54;;;;;;;7.07;3.70;;;6.20;93.20;;;;;;5039888;28;20083;-77
2022/12/08 11:42:23;;;;;;;4.60;3.03;;;6.20;93.00;;;;;;5033083;28;20025;-76
2022/12/08 11:44:57;;;;;;;20.60;13.82;;;6.20;92.90;;;;;;5046492;28;20017;-77
2022/12/08 11:47:29;;;;;;;6.57;3.80;;;6.20;92.80;;;;;;5045955;28;20052;-76
2022/12/08 11:50:27;;;;;;;6.97;3.42;;;6.20;92.70;;;;;;5028605;28;20026;-75
2022/12/08 11:52:53;;;;;;;17.65;9.30;;;6.20;92.80;;;;;;5038107;28;20186;-76
2022/12/08 11:55:41;;;;;;;27.70;16.60;;;6.20;92.70;;;;;;5035621;28;20534;-76
2022/12/08 11:58:16;;;;;;;6.15;3.95;;;6.30;92.70;;;;;;5050018;28;20037;-76
2022/12/08 12:00:44;;;;;;;5.13;3.80;;;6.30;92.70;;;;;;5026133;28;20017;-77
2022/12/08 12:03:28;;;;;;;6.45;3.60;;;6.30;92.60;;;;;;5030481;28;20037;-78
2022/12/08 12:06:15;;;;;;;6.15;3.72;;;6.20;92.50;;;;;;5039867;28;20056;-76
2022/12/08 12:09:10;;;;;;;6.07;3.60;;;6.20;92.40;;;;;;5049125;28;20021;-76
2022/12/08 12:14:55;;;;;;;7.50;3.17;;;6.10;92.50;;;;;;5051575;28;20090;-75
2022/12/08 12:17:43;;;;;;;3.92;2.08;;;6.10;92.40;;;;;;5008075;28;20036;-76
2022/12/08 12:20:20;;;;;;;5.55;2.22;;;6.10;92.30;;;;;;5027298;28;20025;-76
2022/12/08 12:22:52;;;;;;;3.65;2.17;;;6.10;92.30;;;;;;5038419;28;20032;-77
2022/12/08 12:25:24;;;;;;;4.68;3.10;;;6.00;92.20;;;;;;5049300;28;20028;-77
2022/12/08 12:27:54;;;;;;;4.25;2.00;;;6.00;92.30;;;;;;5041207;28;20036;-76
2022/12/08 12:30:25;;;;;;;4.20;2.15;;;6.10;92.40;;;;;;5050662;28;20028;-76
2022/12/08 12:32:55;;;;;;;5.18;2.22;;;6.10;92.30;;;;;;5043410;28;20367;-77
2022/12/08 12:35:36;;;;;;;4.72;1.92;;;6.10;92.30;;;;;;5050625;28;20033;-77
2022/12/08 12:38:59;;;;;;;6.72;2.72;;;6.10;92.40;;;;;;5044307;28;20530;-76
2022/12/08 12:40:59;;;;;;;7.28;3.30;;;6.20;92.30;;;;;;5037758;28;20449;-77
2022/12/08 12:43:36;;;;;;;6.32;2.40;;;6.10;92.10;;;;;;5047385;28;20029;-77
2022/12/08 12:46:23;;;;;;;8.10;2.75;;;6.10;92.10;;;;;;5040406;28;20036;-75
2022/12/08 12:48:50;;;;;;;4.93;1.73;;;6.00;91.90;;;;;;5050299;28;20520;-77
2022/12/08 12:51:43;;;;;;;5.75;1.70;;;6.00;91.90;;;;;;5049227;28;20048;-77
2022/12/08 12:54:26;;;;;;;3.60;1.70;;;5.90;92.00;;;;;;5042234;28;20593;-75
2022/12/08 12:57:22;;;;;;;3.95;1.80;;;6.00;92.20;;;;;;5036785;28;20036;-76
2022/12/08 12:59:53;;;;;;;5.68;2.42;;;6.10;92.40;;;;;;5048349;28;20029;-76
2022/12/08 13:02:21;;;;;;;5.43;2.00;;;6.10;92.20;;;;;;5046908;28;20017;-77
2022/12/08 13:04:59;;;;;;;4.13;1.70;;;6.10;92.00;;;;;;5012928;28;20033;-78
2022/12/08 13:07:34;;;;;;;5.63;2.08;;;6.00;92.00;;;;;;5046674;28;20025;-76
2022/12/08 13:10:14;;;;;;;9.35;2.50;;;6.00;91.90;;;;;;5024145;28;20017;-76
2022/12/08 13:12:40;;;;;;;7.45;3.00;;;6.00;91.80;;;;;;5045660;28;20053;-76
2022/12/08 13:15:14;;;;;;;5.13;1.30;;;6.00;91.80;;;;;;5047676;28;20029;-76
2022/12/08 13:17:44;;;;;;;3.55;1.23;;;6.00;91.90;;;;;;5019458;28;20058;-76